Time,TemperatureF,DewpointF,PressureIn,WindDirection,WindDirectionDegrees,WindSpeedMPH,WindSpeedGustMPH,Humidity,HourlyPrecipIn,Conditions,Clouds,dailyrainin,SoftwareType,DateUTC
2013-08-10 00:02:00,84.5,79.1,30.00,SE,140,4.0,8.0,84,0.00,,,0.00,Wunderground v.1.15,2013-08-10 05:02:00,
2013-08-10 00:08:00,84.4,79.0,30.00,SSE,165,5.0,12.0,84,0.00,,,0.00,Wunderground v.1.15,2013-08-10 05:08:00,
2013-08-10 00:14:00,84.4,78.7,30.00,SE,138,3.0,5.0,83,0.00,,,0.00,Wunderground v.1.15,2013-08-10 05:14:00,
2013-08-10 00:20:00,84.5,79.1,30.01,SE,136,4.0,4.0,84,0.00,,,0.00,Wunderground v.1.15,2013-08-10 05:20:00,
2013-08-10 00:25:00,84.4,79.0,30.00,SE,133,3.0,9.0,84,0.00,,,0.00,Wunderground v.1.15,2013-08-10 05:25:00,
2013-08-10 00:31:00,84.3,78.9,30.00,SE,128,5.0,5.0,84,0.00,,,0.00,Wunderground v.1.15,2013-08-10 05:31:00,
2013-08-10 00:37:00,84.4,78.7,30.00,South,189,5.0,5.0,83,0.00,,,0.00,Wunderground v.1.15,2013-08-10 05:37:00,
2013-08-10 00:43:00,84.5,78.4,30.00,ESE,104,4.0,6.0,82,0.00,,,0.00,Wunderground v.1.15,2013-08-10 05:43:00,
2013-08-10 00:49:00,84.6,78.1,30.00,SE,130,5.0,8.0,81,0.00,,,0.00,Wunderground v.1.15,2013-08-10 05:49:00,
2013-08-10 00:55:00,84.6,78.5,30.00,ESE,114,6.0,6.0,82,0.00,,,0.00,Wunderground v.1.15,2013-08-10 05:55:00,
2013-08-10 01:01:00,84.6,78.5,30.00,East,99,6.0,6.0,82,0.00,,,0.00,Wunderground v.1.15,2013-08-10 06:01:00,
2013-08-10 01:07:00,84.6,78.5,30.00,ESE,115,3.0,7.0,82,0.00,,,0.00,Wunderground v.1.15,2013-08-10 06:07:00,
2013-08-10 01:12:00,84.6,78.9,30.00,SE,131,2.0,5.0,83,0.00,,,0.00,Wunderground v.1.15,2013-08-10 06:12:00,
2013-08-10 01:18:00,84.5,78.8,29.99,SE,142,2.0,9.0,83,0.00,,,0.00,Wunderground v.1.15,2013-08-10 06:18:00,
2013-08-10 01:24:00,84.5,79.1,29.99,SE,145,5.0,6.0,84,0.00,,,0.00,Wunderground v.1.15,2013-08-10 06:24:00,
2013-08-10 01:30:00,84.5,78.8,29.99,SSE,160,4.0,5.0,83,0.00,,,0.00,Wunderground v.1.15,2013-08-10 06:30:00,
2013-08-10 01:36:00,84.4,78.7,29.99,SE,138,4.0,8.0,83,0.00,,,0.00,Wunderground v.1.15,2013-08-10 06:36:00,
2013-08-10 01:42:00,84.5,78.8,29.99,ESE,108,8.0,8.0,83,0.00,,,0.00,Wunderground v.1.15,2013-08-10 06:42:00,
2013-08-10 01:48:00,84.5,78.4,29.99,ESE,116,7.0,8.0,82,0.00,,,0.00,Wunderground v.1.15,2013-08-10 06:48:00,
2013-08-10 01:53:00,84.6,78.5,29.99,SE,129,2.0,9.0,82,0.00,,,0.00,Wunderground v.1.15,2013-08-10 06:53:00,
2013-08-10 01:59:00,84.6,78.9,29.99,South,170,7.0,9.0,83,0.00,,,0.00,Wunderground v.1.15,2013-08-10 06:59:00,
2013-08-10 02:04:00,84.6,78.9,29.99,SE,144,3.0,7.0,83,0.00,,,0.00,Wunderground v.1.15,2013-08-10 07:04:00,
2013-08-10 02:09:00,84.7,78.6,29.99,SSE,158,3.0,9.0,82,0.00,,,0.00,Wunderground v.1.15,2013-08-10 07:09:00,
2013-08-10 02:14:00,84.7,78.6,29.99,SSE,153,7.0,9.0,82,0.00,,,0.00,Wunderground v.1.15,2013-08-10 07:14:00,
2013-08-10 02:19:00,84.8,78.7,29.99,SE,127,5.0,10.0,82,0.00,,,0.00,Wunderground v.1.15,2013-08-10 07:19:00,
2013-08-10 02:24:00,84.8,79.4,29.99,South,172,2.0,7.0,84,0.00,,,0.00,Wunderground v.1.15,2013-08-10 07:24:00,
2013-08-10 02:29:00,84.8,78.7,29.99,SSE,148,6.0,11.0,82,0.00,,,0.00,Wunderground v.1.15,2013-08-10 07:29:00,
2013-08-10 02:34:00,84.7,78.6,29.99,SE,136,2.0,8.0,82,0.00,,,0.00,Wunderground v.1.15,2013-08-10 07:34:00,
2013-08-10 02:39:00,84.7,79.0,29.99,ESE,113,3.0,10.0,83,0.00,,,0.00,Wunderground v.1.15,2013-08-10 07:39:00,
2013-08-10 02:44:00,84.7,79.3,29.99,SE,138,3.0,7.0,84,0.00,,,0.00,Wunderground v.1.15,2013-08-10 07:44:00,
2013-08-10 02:49:00,84.6,78.1,29.99,ESE,111,8.0,10.0,81,0.00,,,0.00,Wunderground v.1.15,2013-08-10 07:49:00,
2013-08-10 02:54:00,84.6,78.1,29.99,SSE,148,4.0,9.0,81,0.00,,,0.00,Wunderground v.1.15,2013-08-10 07:54:00,
2013-08-10 02:59:00,84.6,78.9,29.99,SSE,155,4.0,11.0,83,0.00,,,0.00,Wunderground v.1.15,2013-08-10 07:59:00,
2013-08-10 03:04:00,84.5,78.8,29.99,SSE,158,4.0,10.0,83,0.00,,,0.00,Wunderground v.1.15,2013-08-10 08:04:00,
2013-08-10 03:09:00,84.5,78.0,30.00,South,181,7.0,10.0,81,0.00,,,0.00,Wunderground v.1.15,2013-08-10 08:09:00,
2013-08-10 03:14:00,84.5,78.0,29.99,East,90,4.0,8.0,81,0.00,,,0.00,Wunderground v.1.15,2013-08-10 08:14:00,
2013-08-10 03:19:00,84.5,78.0,30.00,SE,143,4.0,10.0,81,0.00,,,0.00,Wunderground v.1.15,2013-08-10 08:19:00,
2013-08-10 03:24:00,84.7,78.2,29.99,SE,145,5.0,8.0,81,0.00,,,0.00,Wunderground v.1.15,2013-08-10 08:24:00,
2013-08-10 03:29:00,84.7,78.2,29.99,SE,128,3.0,9.0,81,0.00,,,0.00,Wunderground v.1.15,2013-08-10 08:29:00,
2013-08-10 03:34:00,84.8,78.3,29.99,SSE,158,2.0,6.0,81,0.00,,,0.00,Wunderground v.1.15,2013-08-10 08:34:00,
2013-08-10 03:39:00,84.7,78.2,29.99,SE,132,3.0,8.0,81,0.00,,,0.00,Wunderground v.1.15,2013-08-10 08:39:00,
2013-08-10 03:44:00,84.7,77.5,29.99,SE,125,6.0,13.0,79,0.00,,,0.00,Wunderground v.1.15,2013-08-10 08:44:00,
2013-08-10 03:49:00,84.8,77.6,29.99,ESE,115,4.0,13.0,79,0.00,,,0.00,Wunderground v.1.15,2013-08-10 08:49:00,
2013-08-10 03:54:00,84.7,77.8,29.99,SE,131,4.0,7.0,80,0.00,,,0.00,Wunderground v.1.15,2013-08-10 08:54:00,
2013-08-10 03:59:00,84.7,78.2,29.99,ESE,117,10.0,13.0,81,0.00,,,0.00,Wunderground v.1.15,2013-08-10 08:59:00,
2013-08-10 04:04:00,84.8,77.6,30.00,SSE,164,6.0,11.0,79,0.00,,,0.00,Wunderground v.1.15,2013-08-10 09:04:00,
2013-08-10 04:09:00,84.9,77.3,30.00,SE,128,3.0,12.0,78,0.00,,,0.00,Wunderground v.1.15,2013-08-10 09:09:00,
2013-08-10 04:14:00,84.9,77.3,30.00,SSE,164,8.0,9.0,78,0.00,,,0.00,Wunderground v.1.15,2013-08-10 09:14:00,
2013-08-10 04:19:00,84.9,76.9,30.00,SE,133,4.0,12.0,77,0.00,,,0.00,Wunderground v.1.15,2013-08-10 09:19:00,
2013-08-10 04:24:00,84.8,77.9,30.00,SE,136,2.0,10.0,80,0.00,,,0.00,Wunderground v.1.15,2013-08-10 09:24:00,
2013-08-10 04:29:00,84.7,77.5,30.00,East,101,4.0,10.0,79,0.00,,,0.00,Wunderground v.1.15,2013-08-10 09:29:00,
2013-08-10 04:34:00,84.6,77.7,30.00,ESE,110,3.0,9.0,80,0.00,,,0.00,Wunderground v.1.15,2013-08-10 09:34:00,
2013-08-10 04:39:00,84.5,78.0,30.00,SSE,148,2.0,9.0,81,0.00,,,0.00,Wunderground v.1.15,2013-08-10 09:39:00,
2013-08-10 04:44:00,84.4,77.6,30.00,ESE,116,4.0,6.0,80,0.00,,,0.00,Wunderground v.1.15,2013-08-10 09:44:00,
2013-08-10 04:49:00,84.4,77.9,30.00,SE,126,4.0,11.0,81,0.00,,,0.00,Wunderground v.1.15,2013-08-10 09:49:00,
2013-08-10 04:54:00,84.3,77.5,30.00,SSW,193,7.0,8.0,80,0.00,,,0.00,Wunderground v.1.15,2013-08-10 09:54:00,
2013-08-10 04:59:00,84.5,78.0,30.00,SE,141,7.0,10.0,81,0.00,,,0.00,Wunderground v.1.15,2013-08-10 09:59:00,
2013-08-10 05:05:00,84.5,78.0,30.00,SE,135,4.0,6.0,81,0.00,,,0.00,Wunderground v.1.15,2013-08-10 10:05:00,
2013-08-10 05:10:00,84.4,77.2,30.00,ESE,122,3.0,4.0,79,0.00,,,0.00,Wunderground v.1.15,2013-08-10 10:10:00,
2013-08-10 05:15:00,84.5,77.3,30.00,SE,141,3.0,12.0,79,0.00,,,0.00,Wunderground v.1.15,2013-08-10 10:15:00,
2013-08-10 05:20:00,84.4,77.6,30.00,SSE,150,3.0,4.0,80,0.00,,,0.00,Wunderground v.1.15,2013-08-10 10:20:00,
2013-08-10 05:25:00,84.4,77.6,30.00,SSE,152,4.0,8.0,80,0.00,,,0.00,Wunderground v.1.15,2013-08-10 10:25:00,
2013-08-10 05:30:00,84.3,77.5,30.00,ESE,120,4.0,5.0,80,0.00,,,0.00,Wunderground v.1.15,2013-08-10 10:30:00,
2013-08-10 05:35:00,84.3,77.1,30.00,SE,142,3.0,8.0,79,0.00,,,0.00,Wunderground v.1.15,2013-08-10 10:35:00,
2013-08-10 05:40:00,84.3,77.1,30.00,SE,127,4.0,4.0,79,0.00,,,0.00,Wunderground v.1.15,2013-08-10 10:40:00,
2013-08-10 05:45:00,84.3,76.3,30.00,SE,142,3.0,7.0,77,0.00,,,0.00,Wunderground v.1.15,2013-08-10 10:45:00,
2013-08-10 05:50:00,84.3,77.1,30.00,SE,136,5.0,5.0,79,0.00,,,0.00,Wunderground v.1.15,2013-08-10 10:50:00,
2013-08-10 05:55:00,84.3,77.5,30.00,SSE,148,6.0,7.0,80,0.00,,,0.00,Wunderground v.1.15,2013-08-10 10:55:00,
2013-08-10 06:00:00,84.2,77.0,30.00,SSW,194,5.0,6.0,79,0.00,,,0.00,Wunderground v.1.15,2013-08-10 11:00:00,
2013-08-10 06:05:00,84.3,77.5,30.01,SE,132,2.0,7.0,80,0.00,,,0.00,Wunderground v.1.15,2013-08-10 11:05:00,
2013-08-10 06:10:00,84.1,77.3,30.01,SE,138,4.0,5.0,80,0.00,,,0.00,Wunderground v.1.15,2013-08-10 11:10:00,
2013-08-10 06:15:00,84.1,77.6,30.01,SE,134,2.0,6.0,81,0.00,,,0.00,Wunderground v.1.15,2013-08-10 11:15:00,
2013-08-10 06:20:00,84.1,77.6,30.01,SSE,167,3.0,3.0,81,0.00,,,0.00,Wunderground v.1.15,2013-08-10 11:20:00,
2013-08-10 06:25:00,84.0,77.5,30.01,SE,135,3.0,6.0,81,0.00,,,0.00,Wunderground v.1.15,2013-08-10 11:25:00,
2013-08-10 06:30:00,84.1,77.6,30.01,SE,136,2.0,3.0,81,0.00,,,0.00,Wunderground v.1.15,2013-08-10 11:30:00,
2013-08-10 06:35:00,84.2,78.1,30.01,East,100,5.0,6.0,82,0.00,,,0.00,Wunderground v.1.15,2013-08-10 11:35:00,
2013-08-10 06:40:00,84.2,78.1,30.01,ESE,105,5.0,5.0,82,0.00,,,0.00,Wunderground v.1.15,2013-08-10 11:40:00,
2013-08-10 06:45:00,84.2,78.1,30.01,ESE,105,5.0,7.0,82,0.00,,,0.00,Wunderground v.1.15,2013-08-10 11:45:00,
2013-08-10 06:50:00,84.2,78.1,30.01,SSE,158,1.0,4.0,82,0.00,,,0.00,Wunderground v.1.15,2013-08-10 11:50:00,
2013-08-10 06:55:00,84.2,78.1,30.01,South,172,2.0,9.0,82,0.00,,,0.00,Wunderground v.1.15,2013-08-10 11:55:00,
2013-08-10 07:00:00,84.1,78.0,30.01,ESE,121,4.0,4.0,82,0.00,,,0.00,Wunderground v.1.15,2013-08-10 12:00:00,
2013-08-10 07:05:00,84.2,77.7,30.01,ESE,110,5.0,8.0,81,0.00,,,0.00,Wunderground v.1.15,2013-08-10 12:05:00,
2013-08-10 07:10:00,84.3,77.8,30.01,SE,134,2.0,4.0,81,0.00,,,0.00,Wunderground v.1.15,2013-08-10 12:10:00,
2013-08-10 07:15:00,84.9,78.0,30.01,SSE,148,2.0,8.0,80,0.00,,,0.00,Wunderground v.1.15,2013-08-10 12:15:00,
2013-08-10 07:20:00,85.3,77.7,30.02,East,98,9.0,10.0,78,0.00,,,0.00,Wunderground v.1.15,2013-08-10 12:20:00,
2013-08-10 07:25:00,85.5,77.5,30.02,ESE,103,2.0,10.0,77,0.00,,,0.00,Wunderground v.1.15,2013-08-10 12:25:00,
2013-08-10 07:30:00,85.8,78.1,30.02,NW,323,2.0,4.0,78,0.00,,,0.00,Wunderground v.1.15,2013-08-10 12:30:00,
2013-08-10 07:35:00,84.7,78.2,30.02,NNE,20,0.0,4.0,81,0.00,,,0.00,Wunderground v.1.15,2013-08-10 12:35:00,
2013-08-10 07:40:00,84.3,78.2,30.02,NNE,12,0.0,1.0,82,0.00,,,0.00,Wunderground v.1.15,2013-08-10 12:40:00,
2013-08-10 07:45:00,84.5,78.4,30.02,NE,51,0.0,2.0,82,0.00,,,0.00,Wunderground v.1.15,2013-08-10 12:45:00,
2013-08-10 07:50:00,85.4,77.8,30.02,ESE,113,3.0,3.0,78,0.00,,,0.00,Wunderground v.1.15,2013-08-10 12:50:00,
2013-08-10 07:55:00,86.1,77.6,30.02,ESE,122,3.0,7.0,76,0.00,,,0.00,Wunderground v.1.15,2013-08-10 12:55:00,
2013-08-10 08:00:00,86.4,77.5,30.02,ESE,105,4.0,4.0,75,0.00,,,0.00,Wunderground v.1.15,2013-08-10 13:00:00,
2013-08-10 08:05:00,86.8,77.1,30.02,East,100,2.0,6.0,73,0.00,,,0.00,Wunderground v.1.15,2013-08-10 13:05:00,
2013-08-10 08:10:00,86.2,77.3,30.03,East,92,2.0,4.0,75,0.00,,,0.00,Wunderground v.1.15,2013-08-10 13:10:00,
2013-08-10 08:15:00,85.4,77.4,30.03,SE,128,2.0,5.0,77,0.00,,,0.00,Wunderground v.1.15,2013-08-10 13:15:00,
2013-08-10 08:20:00,85.0,77.4,30.03,ESE,110,3.0,4.0,78,0.00,,,0.00,Wunderground v.1.15,2013-08-10 13:20:00,
2013-08-10 08:25:00,85.5,77.9,30.03,SE,136,3.0,5.0,78,0.00,,,0.00,Wunderground v.1.15,2013-08-10 13:25:00,
2013-08-10 08:30:00,86.5,78.0,30.03,ESE,115,4.0,4.0,76,0.00,,,0.00,Wunderground v.1.15,2013-08-10 13:30:00,
2013-08-10 08:35:00,86.4,77.5,30.03,ESE,113,3.0,7.0,75,0.00,,,0.00,Wunderground v.1.15,2013-08-10 13:35:00,
2013-08-10 08:40:00,85.8,77.8,30.03,ESE,108,2.0,3.0,77,0.00,,,0.00,Wunderground v.1.15,2013-08-10 13:40:00,
2013-08-10 08:45:00,85.2,77.2,30.04,South,180,7.0,11.0,77,0.00,,,0.00,Wunderground v.1.15,2013-08-10 13:45:00,
2013-08-10 08:50:00,83.4,75.8,30.04,SE,131,6.0,8.0,78,0.00,,,0.00,Wunderground v.1.15,2013-08-10 13:50:00,
2013-08-10 08:55:00,82.6,75.4,30.04,ESE,108,4.0,12.0,79,0.00,,,0.01,Wunderground v.1.15,2013-08-10 13:55:00,
2013-08-10 09:00:00,82.4,75.2,30.04,SE,131,3.0,5.0,79,0.07,,,0.02,Wunderground v.1.15,2013-08-10 14:00:00,
2013-08-10 09:05:00,82.1,75.7,30.04,South,181,2.0,5.0,81,0.19,,,0.03,Wunderground v.1.15,2013-08-10 14:05:00,
2013-08-10 09:10:00,82.2,77.2,30.04,SSW,198,0.0,2.0,85,0.08,,,0.03,Wunderground v.1.15,2013-08-10 14:10:00,
2013-08-10 09:15:00,82.1,77.1,30.04,SSE,152,0.0,2.0,85,0.05,,,0.03,Wunderground v.1.15,2013-08-10 14:15:00,
2013-08-10 09:20:00,82.9,78.3,30.04,ESE,102,3.0,3.0,86,0.00,,,0.03,Wunderground v.1.15,2013-08-10 14:20:00,
2013-08-10 09:25:00,83.8,77.7,30.04,SE,136,3.0,6.0,82,0.00,,,0.03,Wunderground v.1.15,2013-08-10 14:25:00,
2013-08-10 09:30:00,84.3,77.1,30.04,ESE,104,3.0,6.0,79,0.00,,,0.03,Wunderground v.1.15,2013-08-10 14:30:00,
2013-08-10 09:35:00,84.2,75.4,30.04,ESE,110,4.0,9.0,75,0.00,,,0.03,Wunderground v.1.15,2013-08-10 14:35:00,
2013-08-10 09:40:00,84.9,76.1,30.04,East,100,6.0,6.0,75,0.00,,,0.03,Wunderground v.1.15,2013-08-10 14:40:00,
2013-08-10 09:45:00,85.2,76.4,30.04,ENE,72,6.0,8.0,75,0.00,,,0.03,Wunderground v.1.15,2013-08-10 14:45:00,
2013-08-10 09:50:00,85.1,75.9,30.04,East,94,3.0,5.0,74,0.00,,,0.03,Wunderground v.1.15,2013-08-10 14:50:00,
2013-08-10 09:55:00,85.7,76.5,30.04,ESE,122,5.0,5.0,74,0.00,,,0.03,Wunderground v.1.15,2013-08-10 14:55:00,
2013-08-10 10:00:00,86.2,77.3,30.04,ESE,122,4.0,7.0,75,0.00,,,0.03,Wunderground v.1.15,2013-08-10 15:00:00,
2013-08-10 10:05:00,86.4,77.9,30.05,ESE,104,3.0,9.0,76,0.00,,,0.03,Wunderground v.1.15,2013-08-10 15:05:00,
2013-08-10 10:10:00,86.9,78.0,30.05,ESE,110,6.0,6.0,75,0.00,,,0.03,Wunderground v.1.15,2013-08-10 15:10:00,
2013-08-10 10:15:00,87.1,78.2,30.05,ESE,120,4.0,7.0,75,0.00,,,0.03,Wunderground v.1.15,2013-08-10 15:15:00,
2013-08-10 10:20:00,87.2,77.9,30.05,ESE,114,6.0,8.0,74,0.00,,,0.03,Wunderground v.1.15,2013-08-10 15:20:00,
2013-08-10 10:25:00,87.2,78.3,30.06,SSE,150,2.0,8.0,75,0.00,,,0.03,Wunderground v.1.15,2013-08-10 15:25:00,
2013-08-10 10:30:00,87.4,78.5,30.06,SE,138,2.0,5.0,75,0.00,,,0.03,Wunderground v.1.15,2013-08-10 15:30:00,
2013-08-10 10:35:00,87.3,78.8,30.06,ESE,114,4.0,9.0,76,0.00,,,0.03,Wunderground v.1.15,2013-08-10 15:35:00,
2013-08-10 10:40:00,87.3,78.0,30.06,ESE,120,5.0,7.0,74,0.00,,,0.03,Wunderground v.1.15,2013-08-10 15:40:00,
2013-08-10 10:45:00,87.3,78.8,30.06,East,90,6.0,8.0,76,0.00,,,0.03,Wunderground v.1.15,2013-08-10 15:45:00,
2013-08-10 10:50:00,87.4,79.3,30.06,SE,125,4.0,5.0,77,0.00,,,0.03,Wunderground v.1.15,2013-08-10 15:50:00,
2013-08-10 10:55:00,87.8,79.7,30.06,SE,132,6.0,10.0,77,0.00,,,0.03,Wunderground v.1.15,2013-08-10 15:55:00,
2013-08-10 11:00:00,88.1,78.8,30.07,SE,146,6.0,7.0,74,0.00,,,0.03,Wunderground v.1.15,2013-08-10 16:00:00,
2013-08-10 11:05:00,87.9,79.0,30.07,SE,146,3.0,10.0,75,0.00,,,0.03,Wunderground v.1.15,2013-08-10 16:05:00,
2013-08-10 11:10:00,88.1,78.3,30.07,SSE,163,6.0,6.0,73,0.00,,,0.03,Wunderground v.1.15,2013-08-10 16:10:00,
2013-08-10 11:15:00,88.4,79.1,30.06,SE,146,2.0,8.0,74,0.00,,,0.03,Wunderground v.1.15,2013-08-10 16:15:00,
2013-08-10 11:20:00,88.5,78.7,30.07,ESE,110,5.0,9.0,73,0.00,,,0.03,Wunderground v.1.15,2013-08-10 16:20:00,
2013-08-10 11:25:00,88.5,78.3,30.06,SE,124,3.0,9.0,72,0.00,,,0.03,Wunderground v.1.15,2013-08-10 16:25:00,
2013-08-10 11:31:00,89.1,79.3,30.06,ESE,120,3.0,6.0,73,0.00,,,0.03,Wunderground v.1.15,2013-08-10 16:31:00,
2013-08-10 11:36:00,89.0,78.8,30.06,ESE,120,5.0,8.0,72,0.00,,,0.03,Wunderground v.1.15,2013-08-10 16:36:00,
2013-08-10 11:41:00,89.1,78.9,30.06,South,170,4.0,6.0,72,0.00,,,0.03,Wunderground v.1.15,2013-08-10 16:41:00,
2013-08-10 11:46:00,89.0,78.8,30.06,SE,146,3.0,9.0,72,0.00,,,0.03,Wunderground v.1.15,2013-08-10 16:46:00,
2013-08-10 11:51:00,89.2,78.6,30.06,SE,129,4.0,5.0,71,0.00,,,0.03,Wunderground v.1.15,2013-08-10 16:51:00,
2013-08-10 11:56:00,89.1,78.0,30.06,SE,145,3.0,7.0,70,0.00,,,0.03,Wunderground v.1.15,2013-08-10 16:56:00,
2013-08-10 12:01:00,89.0,78.4,30.06,SE,130,6.0,6.0,71,0.00,,,0.03,Wunderground v.1.15,2013-08-10 17:01:00,
2013-08-10 12:06:00,89.2,78.1,30.06,SE,132,5.0,7.0,70,0.00,,,0.03,Wunderground v.1.15,2013-08-10 17:06:00,
2013-08-10 12:11:00,89.1,78.9,30.06,SSE,150,5.0,6.0,72,0.00,,,0.03,Wunderground v.1.15,2013-08-10 17:11:00,
2013-08-10 12:16:00,89.2,78.6,30.06,SE,141,5.0,8.0,71,0.00,,,0.03,Wunderground v.1.15,2013-08-10 17:16:00,
2013-08-10 12:21:00,89.3,78.7,30.06,SE,131,4.0,7.0,71,0.00,,,0.03,Wunderground v.1.15,2013-08-10 17:21:00,
2013-08-10 12:26:00,89.3,79.1,30.06,ESE,117,5.0,7.0,72,0.00,,,0.03,Wunderground v.1.15,2013-08-10 17:26:00,
2013-08-10 12:31:00,89.4,79.2,30.06,SSE,166,2.0,7.0,72,0.00,,,0.03,Wunderground v.1.15,2013-08-10 17:31:00,
2013-08-10 12:36:00,89.7,79.9,30.06,SSE,153,3.0,8.0,73,0.00,,,0.03,Wunderground v.1.15,2013-08-10 17:36:00,
2013-08-10 12:41:00,89.3,79.1,30.06,East,88,3.0,8.0,72,0.00,,,0.03,Wunderground v.1.15,2013-08-10 17:41:00,
2013-08-10 12:46:00,89.6,78.9,30.05,SE,143,4.0,8.0,71,0.00,,,0.03,Wunderground v.1.15,2013-08-10 17:46:00,
2013-08-10 12:51:00,89.4,78.8,30.05,ESE,122,6.0,9.0,71,0.00,,,0.03,Wunderground v.1.15,2013-08-10 17:51:00,
2013-08-10 12:56:00,89.4,79.2,30.05,SSE,164,6.0,9.0,72,0.00,,,0.03,Wunderground v.1.15,2013-08-10 17:56:00,
2013-08-10 13:01:00,89.7,79.0,30.04,ESE,108,5.0,8.0,71,0.00,,,0.03,Wunderground v.1.15,2013-08-10 18:01:00,
2013-08-10 13:06:00,89.6,78.5,30.04,South,172,7.0,10.0,70,0.00,,,0.03,Wunderground v.1.15,2013-08-10 18:06:00,
2013-08-10 13:11:00,89.7,77.7,30.04,ESE,113,5.0,10.0,68,0.00,,,0.03,Wunderground v.1.15,2013-08-10 18:11:00,
2013-08-10 13:16:00,89.8,77.8,30.03,SSE,160,8.0,10.0,68,0.00,,,0.03,Wunderground v.1.15,2013-08-10 18:16:00,
2013-08-10 13:21:00,89.7,78.6,30.04,SSE,163,4.0,7.0,70,0.00,,,0.03,Wunderground v.1.15,2013-08-10 18:21:00,
2013-08-10 13:26:00,89.7,77.7,30.03,South,176,7.0,9.0,68,0.00,,,0.03,Wunderground v.1.15,2013-08-10 18:26:00,
2013-08-10 13:31:00,89.5,78.0,30.03,SSE,150,5.0,7.0,69,0.00,,,0.03,Wunderground v.1.15,2013-08-10 18:31:00,
2013-08-10 13:36:00,89.9,78.8,30.03,South,174,5.0,7.0,70,0.00,,,0.03,Wunderground v.1.15,2013-08-10 18:36:00,
2013-08-10 13:41:00,90.1,79.0,30.03,ESE,117,5.0,7.0,70,0.00,,,0.03,Wunderground v.1.15,2013-08-10 18:41:00,
2013-08-10 13:46:00,89.7,79.0,30.04,ESE,111,8.0,8.0,71,0.00,,,0.03,Wunderground v.1.15,2013-08-10 18:46:00,
2013-08-10 13:51:00,88.9,77.8,30.03,SE,132,5.0,8.0,70,0.00,,,0.03,Wunderground v.1.15,2013-08-10 18:51:00,
2013-08-10 13:56:00,89.5,78.4,30.03,SE,134,6.0,8.0,70,0.00,,,0.03,Wunderground v.1.15,2013-08-10 18:56:00,
2013-08-10 14:01:00,90.0,78.5,30.03,SE,146,4.0,7.0,69,0.00,,,0.03,Wunderground v.1.15,2013-08-10 19:01:00,
2013-08-10 14:06:00,90.3,77.8,30.03,South,181,2.0,10.0,67,0.00,,,0.03,Wunderground v.1.15,2013-08-10 19:06:00,
2013-08-10 14:11:00,89.9,78.8,30.03,SE,136,3.0,9.0,70,0.00,,,0.03,Wunderground v.1.15,2013-08-10 19:11:00,
2013-08-10 14:16:00,90.0,78.9,30.02,East,99,5.0,10.0,70,0.00,,,0.03,Wunderground v.1.15,2013-08-10 19:16:00,
2013-08-10 14:21:00,90.2,78.2,30.02,SE,127,6.0,9.0,68,0.00,,,0.03,Wunderground v.1.15,2013-08-10 19:21:00,
2013-08-10 14:26:00,90.4,79.3,30.02,SE,134,4.0,9.0,70,0.00,,,0.03,Wunderground v.1.15,2013-08-10 19:26:00,
2013-08-10 14:31:00,90.4,78.8,30.02,ESE,114,8.0,8.0,69,0.00,,,0.03,Wunderground v.1.15,2013-08-10 19:31:00,
2013-08-10 14:36:00,89.7,78.6,30.02,SE,136,5.0,10.0,70,0.00,,,0.03,Wunderground v.1.15,2013-08-10 19:36:00,
2013-08-10 14:41:00,90.2,79.5,30.02,ESE,117,4.0,7.0,71,0.00,,,0.03,Wunderground v.1.15,2013-08-10 19:41:00,
2013-08-10 14:46:00,90.4,78.8,30.03,SE,139,3.0,7.0,69,0.00,,,0.03,Wunderground v.1.15,2013-08-10 19:46:00,
2013-08-10 14:51:00,90.7,78.7,30.02,SSE,150,8.0,8.0,68,0.00,,,0.03,Wunderground v.1.15,2013-08-10 19:51:00,
2013-08-10 14:56:00,90.8,77.9,30.01,SSE,155,3.0,10.0,66,0.00,,,0.03,Wunderground v.1.15,2013-08-10 19:56:00,
2013-08-10 15:01:00,90.5,78.5,30.01,SSE,148,7.0,8.0,68,0.00,,,0.03,Wunderground v.1.15,2013-08-10 20:01:00,
2013-08-10 15:06:00,90.0,79.8,30.01,ESE,120,7.0,8.0,72,0.00,,,0.03,Wunderground v.1.15,2013-08-10 20:06:00,
2013-08-10 15:11:00,89.5,78.8,30.02,SE,132,3.0,6.0,71,0.00,,,0.03,Wunderground v.1.15,2013-08-10 20:11:00,
2013-08-10 15:16:00,90.0,78.9,30.01,SE,146,7.0,8.0,70,0.00,,,0.03,Wunderground v.1.15,2013-08-10 20:16:00,
2013-08-10 15:21:00,90.0,79.3,30.01,SE,138,3.0,9.0,71,0.00,,,0.03,Wunderground v.1.15,2013-08-10 20:21:00,
2013-08-10 15:26:00,90.1,79.0,30.02,SSE,156,3.0,9.0,70,0.00,,,0.03,Wunderground v.1.15,2013-08-10 20:26:00,
2013-08-10 15:31:00,89.8,78.7,30.02,SE,127,4.0,8.0,70,0.00,,,0.03,Wunderground v.1.15,2013-08-10 20:31:00,
2013-08-10 15:36:00,88.7,78.5,30.02,SE,132,6.0,10.0,72,0.00,,,0.03,Wunderground v.1.15,2013-08-10 20:36:00,
2013-08-10 15:41:00,87.8,78.1,30.01,SE,136,4.0,7.0,73,0.00,,,0.03,Wunderground v.1.15,2013-08-10 20:41:00,
2013-08-10 15:46:00,87.8,78.5,30.01,ESE,122,7.0,9.0,74,0.00,,,0.03,Wunderground v.1.15,2013-08-10 20:46:00,
2013-08-10 15:51:00,88.3,78.5,30.01,SE,136,6.0,7.0,73,0.00,,,0.03,Wunderground v.1.15,2013-08-10 20:51:00,
2013-08-10 15:56:00,88.3,76.4,30.01,SE,136,5.0,8.0,68,0.00,,,0.03,Wunderground v.1.15,2013-08-10 20:56:00,
2013-08-10 16:01:00,88.6,78.0,30.01,SE,146,4.0,6.0,71,0.00,,,0.03,Wunderground v.1.15,2013-08-10 21:01:00,
2013-08-10 16:06:00,88.5,77.5,30.01,SE,129,3.0,7.0,70,0.00,,,0.03,Wunderground v.1.15,2013-08-10 21:06:00,
2013-08-10 16:11:00,88.7,78.1,30.01,SE,136,3.0,8.0,71,0.00,,,0.03,Wunderground v.1.15,2013-08-10 21:11:00,
2013-08-10 16:16:00,88.5,77.9,30.02,East,100,7.0,8.0,71,0.00,,,0.03,Wunderground v.1.15,2013-08-10 21:16:00,
2013-08-10 16:21:00,88.1,77.9,30.02,ESE,103,7.0,7.0,72,0.00,,,0.03,Wunderground v.1.15,2013-08-10 21:21:00,
2013-08-10 16:26:00,88.0,77.4,30.02,ESE,120,5.0,11.0,71,0.00,,,0.03,Wunderground v.1.15,2013-08-10 21:26:00,
2013-08-10 16:31:00,88.0,79.5,30.02,SE,139,5.0,8.0,76,0.00,,,0.03,Wunderground v.1.15,2013-08-10 21:31:00,
2013-08-10 16:36:00,87.6,79.9,30.01,SSE,160,9.0,10.0,78,0.00,,,0.03,Wunderground v.1.15,2013-08-10 21:36:00,
2013-08-10 16:41:00,87.5,79.8,30.01,East,101,5.0,7.0,78,0.00,,,0.03,Wunderground v.1.15,2013-08-10 21:41:00,
2013-08-10 16:46:00,87.6,79.1,30.01,SE,127,5.0,13.0,76,0.00,,,0.03,Wunderground v.1.15,2013-08-10 21:46:00,
2013-08-10 16:51:00,87.3,78.8,30.01,SE,138,5.0,8.0,76,0.00,,,0.03,Wunderground v.1.15,2013-08-10 21:51:00,
2013-08-10 16:56:00,87.5,79.4,30.01,SSE,160,6.0,10.0,77,0.00,,,0.03,Wunderground v.1.15,2013-08-10 21:56:00,
2013-08-10 17:01:00,87.3,79.6,30.01,SE,126,6.0,10.0,78,0.00,,,0.03,Wunderground v.1.15,2013-08-10 22:01:00,
2013-08-10 17:06:00,87.0,79.7,30.01,ESE,103,6.0,10.0,79,0.00,,,0.03,Wunderground v.1.15,2013-08-10 22:06:00,
2013-08-10 17:11:00,87.1,79.4,30.01,SE,146,4.0,9.0,78,0.00,,,0.03,Wunderground v.1.15,2013-08-10 22:11:00,
2013-08-10 17:16:00,86.9,79.2,30.00,SE,131,7.0,10.0,78,0.00,,,0.03,Wunderground v.1.15,2013-08-10 22:16:00,
2013-08-10 17:21:00,86.6,78.9,30.00,ESE,120,7.0,10.0,78,0.00,,,0.03,Wunderground v.1.15,2013-08-10 22:21:00,
2013-08-10 17:26:00,86.6,78.5,30.00,ESE,111,5.0,10.0,77,0.00,,,0.03,Wunderground v.1.15,2013-08-10 22:26:00,
2013-08-10 17:31:00,86.8,78.3,30.00,ESE,122,3.0,6.0,76,0.00,,,0.03,Wunderground v.1.15,2013-08-10 22:31:00,
2013-08-10 17:36:00,86.9,78.4,30.00,SE,142,3.0,8.0,76,0.00,,,0.03,Wunderground v.1.15,2013-08-10 22:36:00,
2013-08-10 17:42:00,86.8,77.9,30.00,ESE,110,4.0,8.0,75,0.00,,,0.03,Wunderground v.1.15,2013-08-10 22:42:00,
2013-08-10 17:47:00,86.8,78.3,30.00,ESE,120,6.0,8.0,76,0.00,,,0.03,Wunderground v.1.15,2013-08-10 22:47:00,
2013-08-10 17:52:00,86.6,78.1,30.00,SE,124,4.0,7.0,76,0.00,,,0.03,Wunderground v.1.15,2013-08-10 22:52:00,
2013-08-10 17:57:00,86.4,77.9,30.00,ESE,122,4.0,9.0,76,0.00,,,0.03,Wunderground v.1.15,2013-08-10 22:57:00,
2013-08-10 18:02:00,86.2,77.7,30.00,ESE,110,3.0,8.0,76,0.00,,,0.03,Wunderground v.1.15,2013-08-10 23:02:00,
2013-08-10 18:07:00,86.1,77.6,30.01,ESE,104,4.0,9.0,76,0.00,,,0.03,Wunderground v.1.15,2013-08-10 23:07:00,
2013-08-10 18:12:00,85.8,77.0,30.01,SSW,194,3.0,7.0,75,0.00,,,0.03,Wunderground v.1.15,2013-08-10 23:12:00,
2013-08-10 18:17:00,85.8,77.8,30.01,ESE,108,4.0,9.0,77,0.00,,,0.03,Wunderground v.1.15,2013-08-10 23:17:00,
2013-08-10 18:22:00,85.7,78.0,30.01,SSE,148,8.0,8.0,78,0.00,,,0.03,Wunderground v.1.15,2013-08-10 23:22:00,
2013-08-10 18:27:00,85.4,77.4,30.01,SE,135,5.0,10.0,77,0.00,,,0.03,Wunderground v.1.15,2013-08-10 23:27:00,
2013-08-10 18:32:00,85.2,77.2,30.01,SSE,148,6.0,12.0,77,0.00,,,0.03,Wunderground v.1.15,2013-08-10 23:32:00,
2013-08-10 18:37:00,85.1,77.1,30.02,ESE,122,3.0,12.0,77,0.00,,,0.03,Wunderground v.1.15,2013-08-10 23:37:00,
2013-08-10 18:42:00,85.1,77.1,30.02,SSE,152,6.0,8.0,77,0.00,,,0.03,Wunderground v.1.15,2013-08-10 23:42:00,
2013-08-10 18:47:00,85.0,77.4,30.02,SSE,158,5.0,9.0,78,0.00,,,0.03,Wunderground v.1.15,2013-08-10 23:47:00,
2013-08-10 18:52:00,84.9,77.3,30.02,SSE,152,10.0,10.0,78,0.00,,,0.03,Wunderground v.1.15,2013-08-10 23:52:00,
2013-08-10 18:57:00,84.8,77.2,30.02,SSE,160,6.0,10.0,78,0.00,,,0.03,Wunderground v.1.15,2013-08-10 23:57:00,
2013-08-10 19:02:00,84.8,77.2,30.02,SSE,163,6.0,8.0,78,0.00,,,0.03,Wunderground v.1.15,2013-08-11 00:02:00,
2013-08-10 19:07:00,84.8,77.2,30.02,SSE,161,4.0,9.0,78,0.00,,,0.03,Wunderground v.1.15,2013-08-11 00:07:00,
2013-08-10 19:12:00,84.8,76.8,30.02,ESE,102,3.0,7.0,77,0.00,,,0.03,Wunderground v.1.15,2013-08-11 00:12:00,
2013-08-10 19:17:00,84.9,77.7,30.02,SSE,155,3.0,9.0,79,0.00,,,0.03,Wunderground v.1.15,2013-08-11 00:17:00,
2013-08-10 19:22:00,84.8,75.6,30.02,SSE,148,6.0,7.0,74,0.00,,,0.03,Wunderground v.1.15,2013-08-11 00:22:00,
2013-08-10 19:27:00,85.0,76.6,30.02,SSE,156,6.0,10.0,76,0.00,,,0.03,Wunderground v.1.15,2013-08-11 00:27:00,
2013-08-10 19:32:00,84.8,75.6,30.02,SE,130,3.0,9.0,74,0.00,,,0.03,Wunderground v.1.15,2013-08-11 00:32:00,
2013-08-10 19:37:00,84.8,76.4,30.02,SSE,162,4.0,9.0,76,0.00,,,0.03,Wunderground v.1.15,2013-08-11 00:37:00,
2013-08-10 19:42:00,84.7,75.9,30.03,SSE,153,5.0,9.0,75,0.00,,,0.03,Wunderground v.1.15,2013-08-11 00:42:00,
2013-08-10 19:47:00,84.8,76.0,30.03,South,174,6.0,9.0,75,0.00,,,0.03,Wunderground v.1.15,2013-08-11 00:47:00,
2013-08-10 19:52:00,84.8,76.0,30.03,SE,132,6.0,7.0,75,0.00,,,0.03,Wunderground v.1.15,2013-08-11 00:52:00,
2013-08-10 19:57:00,84.7,75.9,30.03,SSE,160,4.0,8.0,75,0.00,,,0.03,Wunderground v.1.15,2013-08-11 00:57:00,
2013-08-10 20:02:00,84.7,76.7,30.03,SSE,148,5.0,8.0,77,0.00,,,0.03,Wunderground v.1.15,2013-08-11 01:02:00,
2013-08-10 20:07:00,84.7,75.5,30.03,SSE,158,6.0,10.0,74,0.00,,,0.03,Wunderground v.1.15,2013-08-11 01:07:00,
2013-08-10 20:12:00,84.7,75.9,30.03,SSE,148,7.0,8.0,75,0.00,,,0.03,Wunderground v.1.15,2013-08-11 01:12:00,
2013-08-10 20:17:00,84.7,75.9,30.03,South,188,6.0,9.0,75,0.00,,,0.03,Wunderground v.1.15,2013-08-11 01:17:00,
2013-08-10 20:22:00,84.7,76.3,30.03,SSE,166,4.0,10.0,76,0.00,,,0.03,Wunderground v.1.15,2013-08-11 01:22:00,
2013-08-10 20:27:00,84.7,76.7,30.04,ESE,104,4.0,10.0,77,0.00,,,0.03,Wunderground v.1.15,2013-08-11 01:27:00,
2013-08-10 20:32:00,84.5,76.9,30.04,SSE,163,9.0,9.0,78,0.00,,,0.03,Wunderground v.1.15,2013-08-11 01:32:00,
2013-08-10 20:37:00,84.5,75.3,30.04,South,186,8.0,10.0,74,0.00,,,0.03,Wunderground v.1.15,2013-08-11 01:37:00,
2013-08-10 20:42:00,84.6,75.4,30.04,ESE,117,6.0,9.0,74,0.00,,,0.03,Wunderground v.1.15,2013-08-11 01:42:00,
2013-08-10 20:47:00,84.7,75.9,30.04,ESE,120,6.0,9.0,75,0.00,,,0.03,Wunderground v.1.15,2013-08-11 01:47:00,
2013-08-10 20:52:00,84.7,75.9,30.04,SSE,150,5.0,8.0,75,0.00,,,0.03,Wunderground v.1.15,2013-08-11 01:52:00,
2013-08-10 20:58:00,84.6,75.0,30.04,South,174,5.0,9.0,73,0.00,,,0.03,Wunderground v.1.15,2013-08-11 01:58:00,
2013-08-10 21:03:00,84.8,76.0,30.04,SE,129,3.0,8.0,75,0.00,,,0.03,Wunderground v.1.15,2013-08-11 02:03:00,
2013-08-10 21:08:00,84.8,76.0,30.05,South,173,6.0,9.0,75,0.00,,,0.03,Wunderground v.1.15,2013-08-11 02:08:00,
2013-08-10 21:13:00,84.8,76.0,30.05,SSE,162,8.0,10.0,75,0.00,,,0.03,Wunderground v.1.15,2013-08-11 02:13:00,
2013-08-10 21:18:00,84.7,76.3,30.05,South,172,7.0,11.0,76,0.00,,,0.03,Wunderground v.1.15,2013-08-11 02:18:00,
2013-08-10 21:23:00,84.7,76.3,30.05,SSE,150,9.0,11.0,76,0.00,,,0.03,Wunderground v.1.15,2013-08-11 02:23:00,
2013-08-10 21:28:00,84.7,77.1,30.05,SSE,163,5.0,11.0,78,0.00,,,0.03,Wunderground v.1.15,2013-08-11 02:28:00,
2013-08-10 21:32:00,84.6,76.6,30.05,SE,146,6.0,10.0,77,0.00,,,0.03,Wunderground v.1.15,2013-08-11 02:32:00,
2013-08-10 21:37:00,84.5,76.5,30.05,SE,141,8.0,11.0,77,0.00,,,0.03,Wunderground v.1.15,2013-08-11 02:37:00,
2013-08-10 21:42:00,84.5,76.9,30.05,SE,143,4.0,8.0,78,0.00,,,0.03,Wunderground v.1.15,2013-08-11 02:42:00,
2013-08-10 21:47:00,84.3,76.3,30.05,SE,141,4.0,8.0,77,0.00,,,0.03,Wunderground v.1.15,2013-08-11 02:47:00,
2013-08-10 21:53:00,84.3,76.7,30.05,SE,142,6.0,9.0,78,0.00,,,0.03,Wunderground v.1.15,2013-08-11 02:53:00,
2013-08-10 21:58:00,84.3,76.7,30.05,SSE,166,8.0,9.0,78,0.00,,,0.03,Wunderground v.1.15,2013-08-11 02:58:00,
2013-08-10 22:03:00,84.3,76.7,30.05,SE,138,7.0,7.0,78,0.00,,,0.03,Wunderground v.1.15,2013-08-11 03:03:00,
2013-08-10 22:08:00,84.3,77.1,30.05,SE,126,5.0,9.0,79,0.00,,,0.03,Wunderground v.1.15,2013-08-11 03:08:00,
2013-08-10 22:13:00,84.2,77.0,30.06,SE,134,7.0,8.0,79,0.00,,,0.03,Wunderground v.1.15,2013-08-11 03:13:00,
2013-08-10 22:18:00,84.3,76.7,30.06,SSE,148,7.0,9.0,78,0.00,,,0.03,Wunderground v.1.15,2013-08-11 03:18:00,
2013-08-10 22:23:00,84.2,76.2,30.06,SE,146,8.0,8.0,77,0.00,,,0.03,Wunderground v.1.15,2013-08-11 03:23:00,
2013-08-10 22:29:00,84.3,76.7,30.06,SSE,150,4.0,8.0,78,0.00,,,0.03,Wunderground v.1.15,2013-08-11 03:29:00,
2013-08-10 22:34:00,84.2,77.0,30.06,South,174,5.0,11.0,79,0.00,,,0.03,Wunderground v.1.15,2013-08-11 03:34:00,
2013-08-10 22:39:00,84.2,76.6,30.06,SSE,152,7.0,11.0,78,0.00,,,0.03,Wunderground v.1.15,2013-08-11 03:39:00,
2013-08-10 22:44:00,84.2,77.4,30.06,ESE,123,4.0,9.0,80,0.00,,,0.03,Wunderground v.1.15,2013-08-11 03:44:00,
2013-08-10 22:49:00,84.2,77.0,30.06,SSE,153,5.0,10.0,79,0.00,,,0.03,Wunderground v.1.15,2013-08-11 03:49:00,
2013-08-10 22:54:00,84.2,78.1,30.05,SSE,163,5.0,9.0,82,0.00,,,0.03,Wunderground v.1.15,2013-08-11 03:54:00,
2013-08-10 23:00:00,84.0,77.2,30.05,South,169,9.0,9.0,80,0.00,,,0.03,Wunderground v.1.15,2013-08-11 04:00:00,
2013-08-10 23:01:00,84.0,77.2,30.05,South,173,8.0,9.0,80,0.00,,,0.03,Wunderground v.1.15,2013-08-11 04:01:00,
2013-08-10 23:02:00,84.0,77.2,30.05,SSE,164,6.0,9.0,80,0.00,,,0.03,Wunderground v.1.15,2013-08-11 04:02:00,
2013-08-10 23:07:00,84.0,77.5,30.05,SE,146,5.0,12.0,81,0.00,,,0.03,Wunderground v.1.15,2013-08-11 04:07:00,
2013-08-10 23:12:00,84.0,77.9,30.05,East,99,6.0,12.0,82,0.00,,,0.03,Wunderground v.1.15,2013-08-11 04:12:00,
2013-08-10 23:17:00,84.0,77.9,30.05,ESE,107,5.0,13.0,82,0.00,,,0.03,Wunderground v.1.15,2013-08-11 04:17:00,
2013-08-10 23:22:00,83.9,77.8,30.05,SSE,152,12.0,12.0,82,0.00,,,0.03,Wunderground v.1.15,2013-08-11 04:22:00,
2013-08-10 23:27:00,83.9,78.2,30.05,ESE,114,6.0,12.0,83,0.00,,,0.03,Wunderground v.1.15,2013-08-11 04:27:00,
2013-08-10 23:32:00,83.9,77.8,30.05,SE,134,4.0,12.0,82,0.00,,,0.03,Wunderground v.1.15,2013-08-11 04:32:00,
2013-08-10 23:37:00,83.9,77.4,30.05,SE,145,5.0,12.0,81,0.00,,,0.03,Wunderground v.1.15,2013-08-11 04:37:00,
2013-08-10 23:42:00,83.9,77.4,30.05,SE,138,6.0,11.0,81,0.00,,,0.03,Wunderground v.1.15,2013-08-11 04:42:00,
2013-08-10 23:47:00,84.1,77.6,30.05,SE,131,5.0,13.0,81,0.00,,,0.03,Wunderground v.1.15,2013-08-11 04:47:00,
2013-08-10 23:52:00,84.0,77.5,30.04,SSW,198,9.0,11.0,81,0.00,,,0.03,Wunderground v.1.15,2013-08-11 04:52:00,
2013-08-10 23:57:00,84.0,77.5,30.05,South,170,11.0,13.0,81,0.00,,,0.00,Wunderground v.1.15,2013-08-11 04:57:00,